sensor_id;sensor_type;location;lat;lon;timestamp;pressure;altitude;pressure_sealevel;temperature;humidity
64908;BME280;64365;-1.756;110.040;2023-03-16T00:02:26;101707.47;;;6.98;57.66
64908;BME280;64365;-1.756;110.040;2023-03-16T00:04:52;101704.81;;;6.98;57.72
64908;BME280;64365;-1.756;110.040;2023-03-16T00:07:19;101690.03;;;6.97;57.86
64908;BME280;64365;-1.756;110.040;2023-03-16T00:09:46;101697.97;;;6.97;59.03
64908;BME280;64365;-1.756;110.040;2023-03-16T00:12:15;101683.50;;;7.03;58.17
64908;BME280;64365;-1.756;110.040;2023-03-16T00:14:43;101686.47;;;7.01;57.88
64908;BME280;64365;-1.756;110.040;2023-03-16T00:17:13;101682.75;;;7.02;58.77
64908;BME280;64365;-1.756;110.040;2023-03-16T00:19:44;101688.03;;;7.02;59.38
64908;BME280;64365;-1.756;110.040;2023-03-16T00:22:12;101682.09;;;7.05;59.52
64908;BME280;64365;-1.756;110.040;2023-03-16T00:24:39;101667.38;;;6.96;59.33
64908;BME280;64365;-1.756;110.040;2023-03-16T00:27:07;101672.16;;;7.02;58.85
64908;BME280;64365;-1.756;110.040;2023-03-16T00:29:34;101665.06;;;6.94;59.48
64908;BME280;64365;-1.756;110.040;2023-03-16T00:32:00;101658.53;;;6.91;58.84
64908;BME280;64365;-1.756;110.040;2023-03-16T00:34:28;101671.41;;;6.93;58.88
64908;BME280;64365;-1.756;110.040;2023-03-16T00:36:58;101664.25;;;6.94;59.35
64908;BME280;64365;-1.756;110.040;2023-03-16T00:39:25;101658.34;;;6.97;59.55
64908;BME280;64365;-1.756;110.040;2023-03-16T00:41:52;101658.06;;;6.89;59.62
64908;BME280;64365;-1.756;110.040;2023-03-16T00:44:22;101660.25;;;6.87;59.73
64908;BME280;64365;-1.756;110.040;2023-03-16T00:46:49;101667.22;;;6.92;60.19
64908;BME280;64365;-1.756;110.040;2023-03-16T00:49:16;101654.47;;;6.94;60.50
64908;BME280;64365;-1.756;110.040;2023-03-16T00:51:44;101650.13;;;6.98;60.29
64908;BME280;64365;-1.756;110.040;2023-03-16T00:54:11;101639.53;;;6.98;60.33
64908;BME280;64365;-1.756;110.040;2023-03-16T00:56:37;101637.66;;;6.99;60.11
64908;BME280;64365;-1.756;110.040;2023-03-16T00:59:04;101626.63;;;6.97;61.02
64908;BME280;64365;-1.756;110.040;2023-03-16T01:01:31;101625.22;;;6.99;60.46
64908;BME280;64365;-1.756;110.040;2023-03-16T01:03:58;101626.63;;;6.97;61.12
64908;BME280;64365;-1.756;110.040;2023-03-16T01:06:26;101630.50;;;6.99;60.52
64908;BME280;64365;-1.756;110.040;2023-03-16T01:08:54;101627.41;;;6.97;62.19
64908;BME280;64365;-1.756;110.040;2023-03-16T01:11:21;101619.16;;;6.99;61.91
64908;BME280;64365;-1.756;110.040;2023-03-16T01:13:49;101622.72;;;7.03;61.67
64908;BME280;64365;-1.756;110.040;2023-03-16T01:16:18;101620.06;;;7.03;61.12
64908;BME280;64365;-1.756;110.040;2023-03-16T01:18:47;101624.13;;;7.00;62.07
64908;BME280;64365;-1.756;110.040;2023-03-16T01:21:14;101607.94;;;7.02;61.74
64908;BME280;64365;-1.756;110.040;2023-03-16T01:23:41;101611.06;;;7.04;62.08
64908;BME280;64365;-1.756;110.040;2023-03-16T01:26:10;101609.00;;;7.10;62.59
64908;BME280;64365;-1.756;110.040;2023-03-16T01:28:37;101600.31;;;7.09;62.16
64908;BME280;64365;-1.756;110.040;2023-03-16T01:31:06;101591.59;;;7.08;61.81
64908;BME280;64365;-1.756;110.040;2023-03-16T01:33:34;101588.81;;;7.05;62.55
64908;BME280;64365;-1.756;110.040;2023-03-16T01:36:04;101594.06;;;7.14;62.00
64908;BME280;64365;-1.756;110.040;2023-03-16T01:38:31;101596.34;;;6.94;62.62
64908;BME280;64365;-1.756;110.040;2023-03-16T01:40:58;101591.31;;;7.01;63.23
64908;BME280;64365;-1.756;110.040;2023-03-16T01:43:28;101576.88;;;6.99;63.81
64908;BME280;64365;-1.756;110.040;2023-03-16T01:46:21;101575.63;;;6.96;63.24
64908;BME280;64365;-1.756;110.040;2023-03-16T01:49:00;101567.56;;;6.93;63.38
64908;BME280;64365;-1.756;110.040;2023-03-16T01:51:32;101558.13;;;6.91;63.03
64908;BME280;64365;-1.756;110.040;2023-03-16T01:54:02;101558.56;;;6.94;64.82
64908;BME280;64365;-1.756;110.040;2023-03-16T01:56:32;101555.72;;;6.99;63.73
64908;BME280;64365;-1.756;110.040;2023-03-16T01:59:06;101551.09;;;6.96;64.65
64908;BME280;64365;-1.756;110.040;2023-03-16T02:01:35;101562.56;;;7.00;64.84
64908;BME280;64365;-1.756;110.040;2023-03-16T02:04:10;101560.38;;;7.02;63.80
64908;BME280;64365;-1.756;110.040;2023-03-16T02:06:39;101554.47;;;7.05;63.60
64908;BME280;64365;-1.756;110.040;2023-03-16T02:09:07;101553.22;;;7.02;63.78
64908;BME280;64365;-1.756;110.040;2023-03-16T02:11:34;101548.88;;;6.98;63.53
64908;BME280;64365;-1.756;110.040;2023-03-16T02:14:07;101547.16;;;7.02;63.50
64908;BME280;64365;-1.756;110.040;2023-03-16T02:16:34;101540.78;;;7.03;63.59
64908;BME280;64365;-1.756;110.040;2023-03-16T02:19:01;101534.59;;;6.99;64.85
64908;BME280;64365;-1.756;110.040;2023-03-16T02:21:31;101533.19;;;7.01;64.25
64908;BME280;64365;-1.756;110.040;2023-03-16T02:24:00;101518.09;;;7.02;64.76
64908;BME280;64365;-1.756;110.040;2023-03-16T02:26:33;101526.84;;;6.94;64.67
64908;BME280;64365;-1.756;110.040;2023-03-16T02:29:16;101524.03;;;6.99;64.85
64908;BME280;64365;-1.756;110.040;2023-03-16T02:31:47;101527.22;;;6.83;65.09
64908;BME280;64365;-1.756;110.040;2023-03-16T02:34:15;101527.50;;;6.90;65.53
64908;BME280;64365;-1.756;110.040;2023-03-16T02:36:44;101530.13;;;6.90;65.46
64908;BME280;64365;-1.756;110.040;2023-03-16T02:39:11;101526.06;;;6.93;65.70
64908;BME280;64365;-1.756;110.040;2023-03-16T02:41:38;101531.47;;;6.97;66.49
64908;BME280;64365;-1.756;110.040;2023-03-16T02:44:09;101523.09;;;6.95;66.30
64908;BME280;64365;-1.756;110.040;2023-03-16T02:46:39;101526.66;;;6.99;65.74
64908;BME280;64365;-1.756;110.040;2023-03-16T02:49:13;101532.38;;;7.01;66.99
64908;BME280;64365;-1.756;110.040;2023-03-16T02:51:42;101534.59;;;6.99;66.94
64908;BME280;64365;-1.756;110.040;2023-03-16T02:54:09;101529.13;;;7.04;66.65
64908;BME280;64365;-1.756;110.040;2023-03-16T02:56:35;101530.97;;;7.03;67.32
64908;BME280;64365;-1.756;110.040;2023-03-16T02:59:02;101528.03;;;7.05;66.69
64908;BME280;64365;-1.756;110.040;2023-03-16T03:01:29;101512.78;;;7.02;67.14
64908;BME280;64365;-1.756;110.040;2023-03-16T03:03:56;101517.19;;;6.98;66.72
64908;BME280;64365;-1.756;110.040;2023-03-16T03:06:24;101519.81;;;6.98;67.83
64908;BME280;64365;-1.756;110.040;2023-03-16T03:08:50;101516.53;;;7.01;67.96
64908;BME280;64365;-1.756;110.040;2023-03-16T03:11:17;101517.19;;;6.98;68.03
64908;BME280;64365;-1.756;110.040;2023-03-16T03:13:43;101518.72;;;6.99;67.76
64908;BME280;64365;-1.756;110.040;2023-03-16T03:16:10;101512.03;;;7.01;67.70
64908;BME280;64365;-1.756;110.040;2023-03-16T03:18:37;101511.88;;;6.98;68.08
64908;BME280;64365;-1.756;110.040;2023-03-16T03:21:04;101504.63;;;6.95;68.27
64908;BME280;64365;-1.756;110.040;2023-03-16T03:23:32;101503.53;;;6.96;69.15
64908;BME280;64365;-1.756;110.040;2023-03-16T03:26:00;101510.41;;;6.88;69.34
64908;BME280;64365;-1.756;110.040;2023-03-16T03:28:29;101512.13;;;6.84;69.76
64908;BME280;64365;-1.756;110.040;2023-03-16T03:30:56;101507.75;;;6.88;69.23
64908;BME280;64365;-1.756;110.040;2023-03-16T03:33:22;101487.38;;;6.88;69.90
64908;BME280;64365;-1.756;110.040;2023-03-16T03:35:53;101489.59;;;6.86;69.71
64908;BME280;64365;-1.756;110.040;2023-03-16T03:38:19;101489.59;;;6.86;70.02
64908;BME280;64365;-1.756;110.040;2023-03-16T03:40:49;101487.06;;;6.90;70.23
64908;BME280;64365;-1.756;110.040;2023-03-16T03:43:15;101488.19;;;6.89;70.13
64908;BME280;64365;-1.756;110.040;2023-03-16T03:45:42;101478.72;;;6.79;70.68
64908;BME280;64365;-1.756;110.040;2023-03-16T03:48:08;101480.94;;;6.77;70.73
64908;BME280;64365;-1.756;110.040;2023-03-16T03:50:35;101486.88;;;6.74;71.74
64908;BME280;64365;-1.756;110.040;2023-03-16T03:53:02;101479.38;;;6.76;71.36
64908;BME280;64365;-1.756;110.040;2023-03-16T03:55:29;101477.81;;;6.75;71.82
64908;BME280;64365;-1.756;110.040;2023-03-16T03:57:57;101469.47;;;6.73;71.94
64908;BME280;64365;-1.756;110.040;2023-03-16T04:00:23;101454.25;;;6.70;71.77
64908;BME280;64365;-1.756;110.040;2023-03-16T04:02:50;101463.13;;;6.65;71.84
64908;BME280;64365;-1.756;110.040;2023-03-16T04:05:17;101464.53;;;6.63;72.39
64908;BME280;64365;-1.756;110.040;2023-03-16T04:07:43;101457.41;;;6.63;72.45
64908;BME280;64365;-1.756;110.040;2023-03-16T04:10:10;101456.94;;;6.61;72.52
64908;BME280;64365;-1.756;110.040;2023-03-16T04:12:37;101461.47;;;6.61;73.56
64908;BME280;64365;-1.756;110.040;2023-03-16T04:15:06;101452.13;;;6.63;73.41
64908;BME280;64365;-1.756;110.040;2023-03-16T04:17:32;101447.28;;;6.65;72.96
64908;BME280;64365;-1.756;110.040;2023-03-16T04:19:59;101451.97;;;6.60;73.46
64908;BME280;64365;-1.756;110.040;2023-03-16T04:22:29;101437.38;;;6.62;72.97
64908;BME280;64365;-1.756;110.040;2023-03-16T04:24:56;101443.41;;;6.63;73.63
64908;BME280;64365;-1.756;110.040;2023-03-16T04:27:22;101447.78;;;6.58;74.12
64908;BME280;64365;-1.756;110.040;2023-03-16T04:29:49;101440.19;;;6.57;74.13
64908;BME280;64365;-1.756;110.040;2023-03-16T04:32:21;101446.22;;;6.57;74.46
64908;BME280;64365;-1.756;110.040;2023-03-16T04:34:50;101445.47;;;6.57;73.88
64908;BME280;64365;-1.756;110.040;2023-03-16T04:37:20;101432.13;;;6.53;74.44
64908;BME280;64365;-1.756;110.040;2023-03-16T04:39:46;101435.66;;;6.57;74.61
64908;BME280;64365;-1.756;110.040;2023-03-16T04:42:13;101431.81;;;6.55;74.93
64908;BME280;64365;-1.756;110.040;2023-03-16T04:44:40;101433.81;;;6.58;75.54
64908;BME280;64365;-1.756;110.040;2023-03-16T04:47:09;101424.81;;;6.59;75.09
64908;BME280;64365;-1.756;110.040;2023-03-16T04:49:37;101431.94;;;6.58;75.00
64908;BME280;64365;-1.756;110.040;2023-03-16T04:52:04;101429.19;;;6.55;74.93
64908;BME280;64365;-1.756;110.040;2023-03-16T04:54:31;101427.94;;;6.52;74.98
64908;BME280;64365;-1.756;110.040;2023-03-16T04:56:58;101427.34;;;6.47;75.25
64908;BME280;64365;-1.756;110.040;2023-03-16T04:59:25;101434.75;;;6.53;75.29
64908;BME280;64365;-1.756;110.040;2023-03-16T05:01:52;101431.69;;;6.51;75.50
64908;BME280;64365;-1.756;110.040;2023-03-16T05:04:19;101436.22;;;6.42;76.48
64908;BME280;64365;-1.756;110.040;2023-03-16T05:06:47;101427.88;;;6.40;75.61
64908;BME280;64365;-1.756;110.040;2023-03-16T05:09:14;101431.09;;;6.46;75.58
64908;BME280;64365;-1.756;110.040;2023-03-16T05:11:40;101430.78;;;6.47;75.32
64908;BME280;64365;-1.756;110.040;2023-03-16T05:14:07;101425.22;;;6.40;75.79
64908;BME280;64365;-1.756;110.040;2023-03-16T05:16:33;101427.97;;;6.44;75.53
64908;BME280;64365;-1.756;110.040;2023-03-16T05:19:01;101433.72;;;6.46;76.18
64908;BME280;64365;-1.756;110.040;2023-03-16T05:21:28;101424.06;;;6.50;76.78
64908;BME280;64365;-1.756;110.040;2023-03-16T05:23:57;101429.22;;;6.46;76.75
64908;BME280;64365;-1.756;110.040;2023-03-16T05:26:24;101428.72;;;6.53;76.61
64908;BME280;64365;-1.756;110.040;2023-03-16T05:28:50;101431.94;;;6.58;75.82
64908;BME280;64365;-1.756;110.040;2023-03-16T05:31:17;101422.03;;;6.55;76.27
64908;BME280;64365;-1.756;110.040;2023-03-16T05:33:44;101423.91;;;6.55;75.93
64908;BME280;64365;-1.756;110.040;2023-03-16T05:36:11;101414.75;;;6.52;75.94
64908;BME280;64365;-1.756;110.040;2023-03-16T05:38:38;101409.78;;;6.51;76.34
64908;BME280;64365;-1.756;110.040;2023-03-16T05:41:05;101407.00;;;6.47;76.90
64908;BME280;64365;-1.756;110.040;2023-03-16T05:43:32;101404.53;;;6.42;77.02
64908;BME280;64365;-1.756;110.040;2023-03-16T05:45:59;101397.38;;;6.43;77.39
64908;BME280;64365;-1.756;110.040;2023-03-16T05:48:25;101391.34;;;6.42;77.28
64908;BME280;64365;-1.756;110.040;2023-03-16T05:50:52;101395.16;;;6.53;76.63
64908;BME280;64365;-1.756;110.040;2023-03-16T05:53:19;101387.31;;;6.36;77.68
64908;BME280;64365;-1.756;110.040;2023-03-16T05:55:50;101377.41;;;6.33;77.91
64908;BME280;64365;-1.756;110.040;2023-03-16T05:58:19;101377.91;;;6.26;78.13
64908;BME280;64365;-1.756;110.040;2023-03-16T06:00:46;101382.44;;;6.26;77.85
64908;BME280;64365;-1.756;110.040;2023-03-16T06:03:14;101395.91;;;6.33;78.63
64908;BME280;64365;-1.756;110.040;2023-03-16T06:05:41;101396.97;;;6.32;79.00
64908;BME280;64365;-1.756;110.040;2023-03-16T06:08:07;101396.22;;;6.31;78.85
64908;BME280;64365;-1.756;110.040;2023-03-16T06:10:34;101390.78;;;6.28;78.49
64908;BME280;64365;-1.756;110.040;2023-03-16T06:13:01;101388.94;;;6.28;78.47
64908;BME280;64365;-1.756;110.040;2023-03-16T06:15:29;101382.28;;;6.22;79.28
64908;BME280;64365;-1.756;110.040;2023-03-16T06:17:55;101385.25;;;6.20;78.99
64908;BME280;64365;-1.756;110.040;2023-03-16T06:20:22;101375.00;;;6.19;79.14
64908;BME280;64365;-1.756;110.040;2023-03-16T06:22:48;101385.06;;;6.26;78.84
64908;BME280;64365;-1.756;110.040;2023-03-16T06:25:15;101388.16;;;6.28;79.50
64908;BME280;64365;-1.756;110.040;2023-03-16T06:27:42;101383.34;;;6.30;78.59
64908;BME280;64365;-1.756;110.040;2023-03-16T06:30:11;101376.19;;;6.30;78.85
64908;BME280;64365;-1.756;110.040;2023-03-16T06:32:39;101381.59;;;6.34;79.64
64908;BME280;64365;-1.756;110.040;2023-03-16T06:35:08;101370.41;;;6.37;79.21
64908;BME280;64365;-1.756;110.040;2023-03-16T06:37:35;101370.72;;;6.35;79.34
64908;BME280;64365;-1.756;110.040;2023-03-16T06:40:02;101369.97;;;6.35;79.50
64908;BME280;64365;-1.756;110.040;2023-03-16T06:42:29;101377.41;;;6.33;79.24
64908;BME280;64365;-1.756;110.040;2023-03-16T06:44:56;101369.16;;;6.34;79.74
64908;BME280;64365;-1.756;110.040;2023-03-16T06:47:22;101364.50;;;6.40;79.35
64908;BME280;64365;-1.756;110.040;2023-03-16T06:49:50;101363.56;;;6.36;79.45
64908;BME280;64365;-1.756;110.040;2023-03-16T06:52:19;101364.03;;;6.38;79.58
64908;BME280;64365;-1.756;110.040;2023-03-16T06:54:46;101364.03;;;6.38;79.61
64908;BME280;64365;-1.756;110.040;2023-03-16T06:57:12;101361.72;;;6.36;80.13
64908;BME280;64365;-1.756;110.040;2023-03-16T06:59:39;101357.34;;;6.40;79.84
64908;BME280;64365;-1.756;110.040;2023-03-16T07:02:06;101351.38;;;6.52;79.93
64908;BME280;64365;-1.756;110.040;2023-03-16T07:04:32;101353.22;;;6.52;79.88
64908;BME280;64365;-1.756;110.040;2023-03-16T07:07:00;101352.91;;;6.53;79.94
64908;BME280;64365;-1.756;110.040;2023-03-16T07:09:27;101341.56;;;6.53;79.74
64908;BME280;64365;-1.756;110.040;2023-03-16T07:11:54;101346.66;;;6.58;79.66
64908;BME280;64365;-1.756;110.040;2023-03-16T07:14:22;101355.81;;;6.61;79.75
64908;BME280;64365;-1.756;110.040;2023-03-16T07:16:50;101346.25;;;6.68;79.22
64908;BME280;64365;-1.756;110.040;2023-03-16T07:19:18;101340.88;;;6.65;79.17
64908;BME280;64365;-1.756;110.040;2023-03-16T07:21:45;101351.88;;;6.67;79.20
64908;BME280;64365;-1.756;110.040;2023-03-16T07:24:13;101341.63;;;6.65;79.22
64908;BME280;64365;-1.756;110.040;2023-03-16T07:26:40;101337.38;;;6.73;78.78
64908;BME280;64365;-1.756;110.040;2023-03-16T07:29:07;101340.91;;;6.77;79.31
64908;BME280;64365;-1.756;110.040;2023-03-16T07:31:35;101335.88;;;6.84;78.93
64908;BME280;64365;-1.756;110.040;2023-03-16T07:34:02;101339.69;;;6.74;78.92
64908;BME280;64365;-1.756;110.040;2023-03-16T07:36:29;101344.97;;;6.74;79.14
64908;BME280;64365;-1.756;110.040;2023-03-16T07:38:56;101345.63;;;6.71;78.82
64908;BME280;64365;-1.756;110.040;2023-03-16T07:41:23;101349.03;;;6.72;79.93
64908;BME280;64365;-1.756;110.040;2023-03-16T07:43:50;101348.38;;;6.75;79.95
64908;BME280;64365;-1.756;110.040;2023-03-16T07:46:17;101349.88;;;6.85;79.53
64908;BME280;64365;-1.756;110.040;2023-03-16T07:48:44;101336.63;;;6.72;79.21
64908;BME280;64365;-1.756;110.040;2023-03-16T07:51:12;101355.03;;;6.81;78.90
64908;BME280;64365;-1.756;110.040;2023-03-16T07:53:39;101359.34;;;6.86;79.23
64908;BME280;64365;-1.756;110.040;2023-03-16T07:56:06;101350.84;;;6.80;79.61
64908;BME280;64365;-1.756;110.040;2023-03-16T07:58:34;101339.56;;;6.71;79.74
64908;BME280;64365;-1.756;110.040;2023-03-16T08:01:01;101345.34;;;6.85;79.56
64908;BME280;64365;-1.756;110.040;2023-03-16T08:03:29;101344.06;;;6.91;79.18
64908;BME280;64365;-1.756;110.040;2023-03-16T08:05:56;101338.13;;;6.95;79.27
64908;BME280;64365;-1.756;110.040;2023-03-16T08:08:23;101345.72;;;6.96;80.02
64908;BME280;64365;-1.756;110.040;2023-03-16T08:10:50;101316.00;;;6.99;79.26
64908;BME280;64365;-1.756;110.040;2023-03-16T08:13:17;101327.19;;;7.17;78.73
64908;BME280;64365;-1.756;110.040;2023-03-16T08:15:46;101325.88;;;7.23;78.97
64908;BME280;64365;-1.756;110.040;2023-03-16T08:18:13;101332.50;;;7.30;78.32
64908;BME280;64365;-1.756;110.040;2023-03-16T08:20:40;101319.16;;;7.26;78.23
64908;BME280;64365;-1.756;110.040;2023-03-16T08:23:08;101328.53;;;7.36;78.19
64908;BME280;64365;-1.756;110.040;2023-03-16T08:25:35;101332.75;;;7.37;77.76
64908;BME280;64365;-1.756;110.040;2023-03-16T08:28:02;101333.75;;;7.45;77.65
64908;BME280;64365;-1.756;110.040;2023-03-16T08:30:30;101329.22;;;7.45;77.47
64908;BME280;64365;-1.756;110.040;2023-03-16T08:32:58;101336.72;;;7.43;77.04
64908;BME280;64365;-1.756;110.040;2023-03-16T08:35:26;101331.53;;;7.47;77.05
64908;BME280;64365;-1.756;110.040;2023-03-16T08:37:53;101342.56;;;7.49;76.20
64908;BME280;64365;-1.756;110.040;2023-03-16T08:40:20;101343.78;;;7.51;76.02
64908;BME280;64365;-1.756;110.040;2023-03-16T08:42:49;101345.78;;;7.54;75.90
64908;BME280;64365;-1.756;110.040;2023-03-16T08:45:16;101346.31;;;7.60;74.88
64908;BME280;64365;-1.756;110.040;2023-03-16T08:47:44;101346.44;;;7.64;74.23
64908;BME280;64365;-1.756;110.040;2023-03-16T08:50:12;101331.91;;;7.70;74.51
64908;BME280;64365;-1.756;110.040;2023-03-16T08:52:39;101329.03;;;7.75;74.18
64908;BME280;64365;-1.756;110.040;2023-03-16T08:55:07;101330.25;;;7.78;74.09
64908;BME280;64365;-1.756;110.040;2023-03-16T08:57:35;101327.25;;;7.79;73.16
64908;BME280;64365;-1.756;110.040;2023-03-16T09:00:02;101317.56;;;7.83;73.68
64908;BME280;64365;-1.756;110.040;2023-03-16T09:02:36;101311.50;;;7.95;72.15
64908;BME280;64365;-1.756;110.040;2023-03-16T09:05:06;101328.94;;;7.96;72.43
64908;BME280;64365;-1.756;110.040;2023-03-16T09:07:35;101321.97;;;8.04;72.17
64908;BME280;64365;-1.756;110.040;2023-03-16T09:10:02;101320.53;;;8.06;71.16
64908;BME280;64365;-1.756;110.040;2023-03-16T09:12:30;101320.41;;;8.15;72.04
64908;BME280;64365;-1.756;110.040;2023-03-16T09:14:56;101311.00;;;8.30;71.07
64908;BME280;64365;-1.756;110.040;2023-03-16T09:17:23;101320.81;;;8.42;69.80
64908;BME280;64365;-1.756;110.040;2023-03-16T09:19:50;101321.91;;;8.41;70.71
64908;BME280;64365;-1.756;110.040;2023-03-16T09:22:16;101320.50;;;8.31;69.52
64908;BME280;64365;-1.756;110.040;2023-03-16T09:24:45;101321.91;;;8.41;69.49
64908;BME280;64365;-1.756;110.040;2023-03-16T09:27:11;101321.91;;;8.41;69.36
64908;BME280;64365;-1.756;110.040;2023-03-16T09:29:39;101317.06;;;8.43;69.19
64908;BME280;64365;-1.756;110.040;2023-03-16T09:32:07;101318.16;;;8.54;68.58
64908;BME280;64365;-1.756;110.040;2023-03-16T09:34:34;101306.91;;;8.45;68.36
64908;BME280;64365;-1.756;110.040;2023-03-16T09:37:01;101321.81;;;8.50;68.25
64908;BME280;64365;-1.756;110.040;2023-03-16T09:39:27;101316.41;;;8.46;67.99
64908;BME280;64365;-1.756;110.040;2023-03-16T09:42:01;101303.13;;;8.58;68.13
64908;BME280;64365;-1.756;110.040;2023-03-16T09:44:38;101293.91;;;8.68;67.37
64908;BME280;64365;-1.756;110.040;2023-03-16T09:47:11;101297.72;;;8.83;68.10
64908;BME280;64365;-1.756;110.040;2023-03-16T09:49:42;101307.41;;;9.07;67.69
64908;BME280;64365;-1.756;110.040;2023-03-16T09:52:15;101305.03;;;9.18;67.68
64908;BME280;64365;-1.756;110.040;2023-03-16T09:54:48;101306.66;;;9.39;65.71
64908;BME280;64365;-1.756;110.040;2023-03-16T09:57:24;101279.72;;;9.53;65.29
64908;BME280;64365;-1.756;110.040;2023-03-16T09:59:53;101298.78;;;9.74;64.03
64908;BME280;64365;-1.756;110.040;2023-03-16T10:02:38;101296.25;;;9.98;64.11
64908;BME280;64365;-1.756;110.040;2023-03-16T10:05:14;101272.66;;;10.12;62.78
64908;BME280;64365;-1.756;110.040;2023-03-16T10:07:48;101285.31;;;10.19;62.45
64908;BME280;64365;-1.756;110.040;2023-03-16T10:10:25;101284.97;;;10.20;61.64
64908;BME280;64365;-1.756;110.040;2023-03-16T10:12:59;101285.81;;;10.24;61.69
64908;BME280;64365;-1.756;110.040;2023-03-16T10:15:29;101283.53;;;10.23;60.96
64908;BME280;64365;-1.756;110.040;2023-03-16T10:18:03;101278.13;;;10.19;61.58
64908;BME280;64365;-1.756;110.040;2023-03-16T10:20:33;101272.47;;;10.40;61.13
64908;BME280;64365;-1.756;110.040;2023-03-16T10:23:12;101282.06;;;10.65;60.35
64908;BME280;64365;-1.756;110.040;2023-03-16T10:25:46;101277.84;;;10.83;60.61
64908;BME280;64365;-1.756;110.040;2023-03-16T10:28:17;101269.81;;;11.03;58.95
64908;BME280;64365;-1.756;110.040;2023-03-16T10:30:47;101253.69;;;11.15;59.19
64908;BME280;64365;-1.756;110.040;2023-03-16T10:33:20;101267.81;;;11.19;57.77
64908;BME280;64365;-1.756;110.040;2023-03-16T10:35:52;101267.97;;;11.30;57.51
64908;BME280;64365;-1.756;110.040;2023-03-16T10:38:29;101255.53;;;11.38;57.06
64908;BME280;64365;-1.756;110.040;2023-03-16T10:40:58;101259.44;;;11.44;55.82
64908;BME280;64365;-1.756;110.040;2023-03-16T10:43:27;101269.94;;;11.60;56.63
64908;BME280;64365;-1.756;110.040;2023-03-16T10:46:00;101259.84;;;11.73;56.60
64908;BME280;64365;-1.756;110.040;2023-03-16T10:48:30;101255.16;;;11.62;55.54
64908;BME280;64365;-1.756;110.040;2023-03-16T10:50:59;101248.75;;;11.67;54.95
64908;BME280;64365;-1.756;110.040;2023-03-16T10:53:30;101245.84;;;11.79;55.59
64908;BME280;64365;-1.756;110.040;2023-03-16T10:56:01;101245.19;;;11.86;54.91
64908;BME280;64365;-1.756;110.040;2023-03-16T10:58:31;101236.81;;;11.84;54.57
64908;BME280;64365;-1.756;110.040;2023-03-16T11:00:58;101240.53;;;11.79;54.88
64908;BME280;64365;-1.756;110.040;2023-03-16T11:03:27;101241.97;;;11.73;54.56
64908;BME280;64365;-1.756;110.040;2023-03-16T11:05:57;101240.91;;;11.78;55.57
64908;BME280;64365;-1.756;110.040;2023-03-16T11:08:26;101231.47;;;11.84;54.83
64908;BME280;64365;-1.756;110.040;2023-03-16T11:10:55;101210.53;;;11.83;54.54
64908;BME280;64365;-1.756;110.040;2023-03-16T11:13:24;101219.38;;;11.60;54.11
64908;BME280;64365;-1.756;110.040;2023-03-16T11:15:56;101231.88;;;11.59;54.46
64908;BME280;64365;-1.756;110.040;2023-03-16T11:18:28;101214.63;;;11.46;55.21
64908;BME280;64365;-1.756;110.040;2023-03-16T11:20:57;101215.63;;;11.38;55.01
64908;BME280;64365;-1.756;110.040;2023-03-16T11:23:31;101208.44;;;11.42;54.78
64908;BME280;64365;-1.756;110.040;2023-03-16T11:26:06;101204.63;;;11.39;55.32
64908;BME280;64365;-1.756;110.040;2023-03-16T11:28:37;101204.16;;;11.34;55.01
64908;BME280;64365;-1.756;110.040;2023-03-16T11:31:14;101193.19;;;11.39;55.42
64908;BME280;64365;-1.756;110.040;2023-03-16T11:33:44;101195.13;;;11.42;54.99
64908;BME280;64365;-1.756;110.040;2023-03-16T11:36:19;101189.81;;;11.42;54.52
64908;BME280;64365;-1.756;110.040;2023-03-16T11:39:00;101199.66;;;11.38;54.87
64908;BME280;64365;-1.756;110.040;2023-03-16T11:41:38;101202.47;;;11.49;55.61
64908;BME280;64365;-1.756;110.040;2023-03-16T11:44:11;101209.91;;;11.62;55.41
64908;BME280;64365;-1.756;110.040;2023-03-16T11:46:47;101196.72;;;11.73;55.00
64908;BME280;64365;-1.756;110.040;2023-03-16T11:49:32;101196.41;;;11.78;55.01
64908;BME280;64365;-1.756;110.040;2023-03-16T11:52:12;101198.41;;;11.89;54.93
64908;BME280;64365;-1.756;110.040;2023-03-16T11:54:52;101187.16;;;11.99;54.05
64908;BME280;64365;-1.756;110.040;2023-03-16T11:57:32;101195.22;;;12.06;53.83
64908;BME280;64365;-1.756;110.040;2023-03-16T12:00:18;101191.13;;;12.12;53.74
64908;BME280;64365;-1.756;110.040;2023-03-16T12:02:57;101187.41;;;12.24;53.60
64908;BME280;64365;-1.756;110.040;2023-03-16T12:05:39;101176.00;;;12.24;52.13
64908;BME280;64365;-1.756;110.040;2023-03-16T12:08:17;101187.94;;;12.37;51.99
64908;BME280;64365;-1.756;110.040;2023-03-16T12:10:54;101171.63;;;12.46;52.12
64908;BME280;64365;-1.756;110.040;2023-03-16T12:13:31;101167.56;;;12.59;50.74
64908;BME280;64365;-1.756;110.040;2023-03-16T12:16:05;101167.28;;;12.68;50.61
64908;BME280;64365;-1.756;110.040;2023-03-16T12:18:42;101174.53;;;12.71;50.51
64908;BME280;64365;-1.756;110.040;2023-03-16T12:21:14;101164.63;;;12.72;49.69
64908;BME280;64365;-1.756;110.040;2023-03-16T12:23:49;101169.28;;;12.82;50.50
64908;BME280;64365;-1.756;110.040;2023-03-16T12:26:16;101169.97;;;12.72;49.10
64908;BME280;64365;-1.756;110.040;2023-03-16T12:28:43;101174.63;;;12.82;49.42
64908;BME280;64365;-1.756;110.040;2023-03-16T12:31:13;101165.44;;;12.76;49.06
64908;BME280;64365;-1.756;110.040;2023-03-16T12:33:56;101165.09;;;12.81;49.21
64908;BME280;64365;-1.756;110.040;2023-03-16T12:36:44;101155.59;;;12.84;48.80
64908;BME280;64365;-1.756;110.040;2023-03-16T12:39:17;101154.03;;;12.83;48.61
64908;BME280;64365;-1.756;110.040;2023-03-16T12:41:58;101144.22;;;12.94;48.69
64908;BME280;64365;-1.756;110.040;2023-03-16T12:44:34;101137.81;;;13.02;48.50
64908;BME280;64365;-1.756;110.040;2023-03-16T12:47:12;101141.28;;;13.13;48.47
64908;BME280;64365;-1.756;110.040;2023-03-16T12:49:43;101126.50;;;13.23;48.17